sensor_id;sensor_type;location;lat;lon;timestamp;pressure;altitude;pressure_sealevel;temperature;humidity
73936;BME280;62287;50.858;0.252;2023-03-14T00:00:25;98693.27;;;14.82;42.03
73936;BME280;62287;50.858;0.252;2023-03-14T00:00:56;98698.23;;;14.40;41.86
73936;BME280;62287;50.858;0.252;2023-03-14T00:01:27;98689.61;;;14.50;41.83
73936;BME280;62287;50.858;0.252;2023-03-14T00:01:58;98694.49;;;14.65;41.69
73936;BME280;62287;50.858;0.252;2023-03-14T00:02:29;98697.95;;;14.55;41.69
73936;BME280;62287;50.858;0.252;2023-03-14T00:03:00;98696.13;;;14.76;41.43
73936;BME280;62287;50.858;0.252;2023-03-14T00:03:31;98695.46;;;15.47;41.24
73936;BME280;62287;50.858;0.252;2023-03-14T00:04:04;98695.39;;;14.97;41.10
73936;BME280;62287;50.858;0.252;2023-03-14T00:04:35;98696.20;;;14.64;41.20
73936;BME280;62287;50.858;0.252;2023-03-14T00:05:08;98693.12;;;15.05;41.05
73936;BME280;62287;50.858;0.252;2023-03-14T00:05:39;98695.73;;;14.86;41.14
73936;BME280;62287;50.858;0.252;2023-03-14T00:06:11;98696.51;;;14.80;41.42
73936;BME280;62287;50.858;0.252;2023-03-14T00:06:43;98696.23;;;14.36;41.52
73936;BME280;62287;50.858;0.252;2023-03-14T00:07:14;98696.56;;;14.98;41.34
73936;BME280;62287;50.858;0.252;2023-03-14T00:07:45;98690.26;;;14.62;41.27
73936;BME280;62287;50.858;0.252;2023-03-14T00:08:16;98693.41;;;14.44;41.45
73936;BME280;62287;50.858;0.252;2023-03-14T00:08:47;98686.92;;;14.71;41.51
73936;BME280;62287;50.858;0.252;2023-03-14T00:09:18;98685.73;;;14.78;41.50
73936;BME280;62287;50.858;0.252;2023-03-14T00:09:50;98686.17;;;14.39;41.51
73936;BME280;62287;50.858;0.252;2023-03-14T00:10:21;98686.90;;;14.15;41.57
73936;BME280;62287;50.858;0.252;2023-03-14T00:10:52;98685.90;;;14.57;41.70
73936;BME280;62287;50.858;0.252;2023-03-14T00:11:23;98690.71;;;14.45;41.69
73936;BME280;62287;50.858;0.252;2023-03-14T00:11:54;98686.33;;;14.59;41.63
73936;BME280;62287;50.858;0.252;2023-03-14T00:12:25;98685.93;;;14.69;41.52
73936;BME280;62287;50.858;0.252;2023-03-14T00:12:56;98682.94;;;14.70;41.59
73936;BME280;62287;50.858;0.252;2023-03-14T00:13:27;98685.08;;;14.76;41.43
73936;BME280;62287;50.858;0.252;2023-03-14T00:13:58;98684.78;;;14.53;41.64
73936;BME280;62287;50.858;0.252;2023-03-14T00:14:29;98682.98;;;14.49;41.65
73936;BME280;62287;50.858;0.252;2023-03-14T00:15:01;98684.35;;;14.16;41.64
73936;BME280;62287;50.858;0.252;2023-03-14T00:15:32;98687.42;;;14.12;41.68
73936;BME280;62287;50.858;0.252;2023-03-14T00:16:06;98683.19;;;14.66;41.55
73936;BME280;62287;50.858;0.252;2023-03-14T00:16:39;98682.15;;;14.36;41.61
73936;BME280;62287;50.858;0.252;2023-03-14T00:17:10;98686.24;;;14.52;41.87
73936;BME280;62287;50.858;0.252;2023-03-14T00:17:43;98683.82;;;14.16;41.76
73936;BME280;62287;50.858;0.252;2023-03-14T00:18:14;98686.19;;;14.61;41.64
73936;BME280;62287;50.858;0.252;2023-03-14T00:18:45;98681.46;;;14.29;41.62
73936;BME280;62287;50.858;0.252;2023-03-14T00:19:16;98683.92;;;14.73;41.43
73936;BME280;62287;50.858;0.252;2023-03-14T00:19:46;98687.47;;;14.92;41.65
73936;BME280;62287;50.858;0.252;2023-03-14T00:20:18;98681.77;;;15.05;41.71
73936;BME280;62287;50.858;0.252;2023-03-14T00:20:48;98685.37;;;14.56;41.71
73936;BME280;62287;50.858;0.252;2023-03-14T00:21:19;98684.38;;;14.26;41.65
73936;BME280;62287;50.858;0.252;2023-03-14T00:21:50;98684.85;;;14.09;41.70
73936;BME280;62287;50.858;0.252;2023-03-14T00:22:21;98681.01;;;14.59;41.66
73936;BME280;62287;50.858;0.252;2023-03-14T00:22:53;98685.03;;;14.34;41.47
73936;BME280;62287;50.858;0.252;2023-03-14T00:23:25;98687.17;;;14.56;41.61
73936;BME280;62287;50.858;0.252;2023-03-14T00:23:57;98686.61;;;14.33;41.77
73936;BME280;62287;50.858;0.252;2023-03-14T00:24:27;98686.07;;;14.10;41.76
73936;BME280;62287;50.858;0.252;2023-03-14T00:24:59;98683.84;;;14.06;41.80
73936;BME280;62287;50.858;0.252;2023-03-14T00:25:30;98682.37;;;14.61;41.59
73936;BME280;62287;50.858;0.252;2023-03-14T00:26:01;98683.66;;;14.46;41.41
73936;BME280;62287;50.858;0.252;2023-03-14T00:26:33;98688.46;;;14.70;41.42
73936;BME280;62287;50.858;0.252;2023-03-14T00:27:04;98683.41;;;14.23;41.48
73936;BME280;62287;50.858;0.252;2023-03-14T00:27:35;98679.84;;;14.42;41.56
73936;BME280;62287;50.858;0.252;2023-03-14T00:28:06;98682.24;;;14.58;41.48
73936;BME280;62287;50.858;0.252;2023-03-14T00:28:37;98684.60;;;14.28;41.50
73936;BME280;62287;50.858;0.252;2023-03-14T00:29:09;98685.09;;;14.57;41.53
73936;BME280;62287;50.858;0.252;2023-03-14T00:29:40;98681.56;;;14.43;41.66
73936;BME280;62287;50.858;0.252;2023-03-14T00:30:13;98682.03;;;14.60;41.57
73936;BME280;62287;50.858;0.252;2023-03-14T00:30:44;98680.19;;;14.50;41.54
73936;BME280;62287;50.858;0.252;2023-03-14T00:31:15;98674.82;;;14.20;41.48
73936;BME280;62287;50.858;0.252;2023-03-14T00:31:46;98684.09;;;14.59;41.42
73936;BME280;62287;50.858;0.252;2023-03-14T00:32:17;98677.35;;;14.04;41.73
73936;BME280;62287;50.858;0.252;2023-03-14T00:32:48;98677.80;;;14.46;41.61
73936;BME280;62287;50.858;0.252;2023-03-14T00:33:19;98680.16;;;14.56;41.59
73936;BME280;62287;50.858;0.252;2023-03-14T00:33:52;98678.10;;;14.02;41.51
73936;BME280;62287;50.858;0.252;2023-03-14T00:34:23;98681.03;;;14.54;41.42
73936;BME280;62287;50.858;0.252;2023-03-14T00:34:54;98682.96;;;14.82;41.52
73936;BME280;62287;50.858;0.252;2023-03-14T00:35:25;98681.59;;;14.09;41.45
73936;BME280;62287;50.858;0.252;2023-03-14T00:35:57;98680.85;;;14.71;41.73
73936;BME280;62287;50.858;0.252;2023-03-14T00:36:28;98684.04;;;14.38;41.78
73936;BME280;62287;50.858;0.252;2023-03-14T00:36:59;98681.26;;;14.55;41.71
73936;BME280;62287;50.858;0.252;2023-03-14T00:37:30;98683.35;;;14.46;41.69
73936;BME280;62287;50.858;0.252;2023-03-14T00:38:01;98682.05;;;14.40;41.79
73936;BME280;62287;50.858;0.252;2023-03-14T00:38:33;98686.51;;;14.42;41.87
73936;BME280;62287;50.858;0.252;2023-03-14T00:39:04;98678.48;;;14.90;41.68
73936;BME280;62287;50.858;0.252;2023-03-14T00:39:35;98678.20;;;14.53;41.66
73936;BME280;62287;50.858;0.252;2023-03-14T00:40:07;98683.56;;;14.38;41.84
73936;BME280;62287;50.858;0.252;2023-03-14T00:40:39;98672.54;;;14.37;41.83
73936;BME280;62287;50.858;0.252;2023-03-14T00:41:12;98680.35;;;14.88;41.63
73936;BME280;62287;50.858;0.252;2023-03-14T00:41:43;98675.36;;;14.63;41.67
73936;BME280;62287;50.858;0.252;2023-03-14T00:42:14;98677.19;;;14.38;41.71
73936;BME280;62287;50.858;0.252;2023-03-14T00:42:45;98673.99;;;14.87;41.57
73936;BME280;62287;50.858;0.252;2023-03-14T00:43:16;98674.87;;;14.24;41.75
73936;BME280;62287;50.858;0.252;2023-03-14T00:43:47;98669.53;;;14.19;41.58
73936;BME280;62287;50.858;0.252;2023-03-14T00:44:18;98670.95;;;14.35;41.66
73936;BME280;62287;50.858;0.252;2023-03-14T00:44:49;98669.27;;;14.36;41.71
73936;BME280;62287;50.858;0.252;2023-03-14T00:45:20;98668.08;;;14.54;41.55
73936;BME280;62287;50.858;0.252;2023-03-14T00:45:52;98668.73;;;14.39;41.55
73936;BME280;62287;50.858;0.252;2023-03-14T00:46:23;98662.87;;;14.42;41.62
73936;BME280;62287;50.858;0.252;2023-03-14T00:46:54;98664.95;;;14.85;41.64
73936;BME280;62287;50.858;0.252;2023-03-14T00:47:25;98664.87;;;14.42;41.70
73936;BME280;62287;50.858;0.252;2023-03-14T00:47:56;98665.92;;;14.33;41.82
73936;BME280;62287;50.858;0.252;2023-03-14T00:48:27;98667.84;;;14.47;41.65
73936;BME280;62287;50.858;0.252;2023-03-14T00:48:58;98666.58;;;14.40;41.65
73936;BME280;62287;50.858;0.252;2023-03-14T00:49:29;98668.95;;;14.16;41.81
73936;BME280;62287;50.858;0.252;2023-03-14T00:50:00;98668.30;;;14.17;41.93
73936;BME280;62287;50.858;0.252;2023-03-14T00:50:31;98665.26;;;14.35;41.80
73936;BME280;62287;50.858;0.252;2023-03-14T00:51:02;98666.03;;;14.63;41.82
73936;BME280;62287;50.858;0.252;2023-03-14T00:51:34;98667.93;;;14.20;41.92
73936;BME280;62287;50.858;0.252;2023-03-14T00:52:05;98666.09;;;14.03;41.71
73936;BME280;62287;50.858;0.252;2023-03-14T00:52:35;98669.02;;;14.08;41.69
73936;BME280;62287;50.858;0.252;2023-03-14T00:53:07;98666.64;;;14.75;41.79
73936;BME280;62287;50.858;0.252;2023-03-14T00:53:39;98666.73;;;14.66;41.94
73936;BME280;62287;50.858;0.252;2023-03-14T00:54:10;98670.79;;;14.08;41.99
73936;BME280;62287;50.858;0.252;2023-03-14T00:54:41;98677.04;;;13.75;42.00
73936;BME280;62287;50.858;0.252;2023-03-14T00:55:12;98671.62;;;14.74;41.94
73936;BME280;62287;50.858;0.252;2023-03-14T00:55:43;98670.37;;;14.79;41.75
73936;BME280;62287;50.858;0.252;2023-03-14T00:56:14;98671.40;;;13.92;41.78
73936;BME280;62287;50.858;0.252;2023-03-14T00:56:45;98672.48;;;14.35;41.69
73936;BME280;62287;50.858;0.252;2023-03-14T00:57:17;98670.96;;;14.45;41.65
73936;BME280;62287;50.858;0.252;2023-03-14T00:57:47;98673.13;;;14.48;41.53
73936;BME280;62287;50.858;0.252;2023-03-14T00:58:18;98666.65;;;14.21;41.52
73936;BME280;62287;50.858;0.252;2023-03-14T00:58:54;98671.75;;;14.33;41.61
73936;BME280;62287;50.858;0.252;2023-03-14T00:59:25;98671.43;;;14.74;41.59
73936;BME280;62287;50.858;0.252;2023-03-14T00:59:56;98667.91;;;14.28;41.46
73936;BME280;62287;50.858;0.252;2023-03-14T01:00:26;98671.44;;;14.50;41.58
73936;BME280;62287;50.858;0.252;2023-03-14T01:00:58;98676.08;;;14.42;41.68
73936;BME280;62287;50.858;0.252;2023-03-14T01:01:29;98668.72;;;14.15;41.62
73936;BME280;62287;50.858;0.252;2023-03-14T01:01:59;98671.12;;;14.05;41.54
73936;BME280;62287;50.858;0.252;2023-03-14T01:02:30;98673.11;;;14.32;41.75
73936;BME280;62287;50.858;0.252;2023-03-14T01:03:02;98675.13;;;14.59;41.61
73936;BME280;62287;50.858;0.252;2023-03-14T01:03:33;98673.89;;;14.04;41.79
73936;BME280;62287;50.858;0.252;2023-03-14T01:04:04;98676.01;;;14.41;41.74
73936;BME280;62287;50.858;0.252;2023-03-14T01:04:35;98673.42;;;14.50;41.57
73936;BME280;62287;50.858;0.252;2023-03-14T01:05:07;98670.74;;;14.42;41.69
73936;BME280;62287;50.858;0.252;2023-03-14T01:05:38;98673.69;;;14.53;41.62
73936;BME280;62287;50.858;0.252;2023-03-14T01:06:12;98673.28;;;14.47;41.58
73936;BME280;62287;50.858;0.252;2023-03-14T01:06:44;98669.70;;;14.40;41.68
73936;BME280;62287;50.858;0.252;2023-03-14T01:07:15;98672.99;;;14.09;41.61
73936;BME280;62287;50.858;0.252;2023-03-14T01:07:45;98670.77;;;14.54;41.58
73936;BME280;62287;50.858;0.252;2023-03-14T01:08:16;98671.86;;;14.91;41.48
73936;BME280;62287;50.858;0.252;2023-03-14T01:08:48;98671.57;;;14.52;41.55
73936;BME280;62287;50.858;0.252;2023-03-14T01:09:19;98676.43;;;14.56;41.48
73936;BME280;62287;50.858;0.252;2023-03-14T01:09:51;98669.16;;;15.15;41.32
73936;BME280;62287;50.858;0.252;2023-03-14T01:10:23;98672.10;;;14.49;41.41
73936;BME280;62287;50.858;0.252;2023-03-14T01:10:54;98677.99;;;14.30;41.35
73936;BME280;62287;50.858;0.252;2023-03-14T01:11:27;98672.29;;;14.60;41.34
73936;BME280;62287;50.858;0.252;2023-03-14T01:11:58;98672.81;;;14.64;41.46
73936;BME280;62287;50.858;0.252;2023-03-14T01:12:29;98669.83;;;14.62;41.48
73936;BME280;62287;50.858;0.252;2023-03-14T01:13:00;98668.95;;;14.35;41.54
73936;BME280;62287;50.858;0.252;2023-03-14T01:13:31;98666.07;;;14.07;41.55
73936;BME280;62287;50.858;0.252;2023-03-14T01:14:03;98667.34;;;14.44;41.52
73936;BME280;62287;50.858;0.252;2023-03-14T01:14:34;98662.98;;;13.96;41.53
73936;BME280;62287;50.858;0.252;2023-03-14T01:15:06;98669.88;;;14.10;41.47
73936;BME280;62287;50.858;0.252;2023-03-14T01:15:37;98665.51;;;14.69;41.56
73936;BME280;62287;50.858;0.252;2023-03-14T01:16:10;98665.30;;;14.60;41.57
73936;BME280;62287;50.858;0.252;2023-03-14T01:16:42;98668.39;;;14.36;41.56
73936;BME280;62287;50.858;0.252;2023-03-14T01:17:12;98670.76;;;14.21;41.44
73936;BME280;62287;50.858;0.252;2023-03-14T01:17:43;98665.55;;;14.53;41.37
73936;BME280;62287;50.858;0.252;2023-03-14T01:18:14;98665.10;;;15.03;41.35
73936;BME280;62287;50.858;0.252;2023-03-14T01:18:46;98668.96;;;14.36;41.46
73936;BME280;62287;50.858;0.252;2023-03-14T01:19:17;98668.65;;;14.39;41.52
73936;BME280;62287;50.858;0.252;2023-03-14T01:19:48;98672.48;;;14.47;41.49
73936;BME280;62287;50.858;0.252;2023-03-14T01:20:19;98667.54;;;14.56;41.31
73936;BME280;62287;50.858;0.252;2023-03-14T01:20:50;98670.19;;;14.62;41.23
73936;BME280;62287;50.858;0.252;2023-03-14T01:21:24;98669.59;;;14.48;41.33
73936;BME280;62287;50.858;0.252;2023-03-14T01:21:55;98672.39;;;14.38;41.41
73936;BME280;62287;50.858;0.252;2023-03-14T01:22:26;98669.35;;;14.34;41.36
73936;BME280;62287;50.858;0.252;2023-03-14T01:22:57;98673.27;;;14.53;41.35
73936;BME280;62287;50.858;0.252;2023-03-14T01:23:28;98669.47;;;14.63;41.23
73936;BME280;62287;50.858;0.252;2023-03-14T01:24:02;98670.26;;;14.02;41.39
73936;BME280;62287;50.858;0.252;2023-03-14T01:24:33;98671.81;;;14.73;41.40
73936;BME280;62287;50.858;0.252;2023-03-14T01:25:05;98671.32;;;14.70;41.41
73936;BME280;62287;50.858;0.252;2023-03-14T01:25:41;98671.13;;;14.38;41.41
73936;BME280;62287;50.858;0.252;2023-03-14T01:26:13;98674.04;;;14.44;41.33
73936;BME280;62287;50.858;0.252;2023-03-14T01:26:45;98672.20;;;13.97;41.42
73936;BME280;62287;50.858;0.252;2023-03-14T01:27:16;98670.83;;;14.30;41.45
73936;BME280;62287;50.858;0.252;2023-03-14T01:27:47;98670.98;;;13.94;41.46
73936;BME280;62287;50.858;0.252;2023-03-14T01:28:18;98669.48;;;14.38;41.38
73936;BME280;62287;50.858;0.252;2023-03-14T01:28:50;98671.75;;;14.56;41.20
73936;BME280;62287;50.858;0.252;2023-03-14T01:29:22;98670.50;;;14.44;41.30
73936;BME280;62287;50.858;0.252;2023-03-14T01:29:53;98670.98;;;14.39;41.35
73936;BME280;62287;50.858;0.252;2023-03-14T01:30:24;98671.35;;;14.69;41.32
73936;BME280;62287;50.858;0.252;2023-03-14T01:30:55;98669.90;;;14.41;41.35
73936;BME280;62287;50.858;0.252;2023-03-14T01:31:26;98668.16;;;14.84;41.26
73936;BME280;62287;50.858;0.252;2023-03-14T01:31:57;98667.10;;;14.45;41.28
73936;BME280;62287;50.858;0.252;2023-03-14T01:32:28;98667.79;;;14.44;41.27
73936;BME280;62287;50.858;0.252;2023-03-14T01:32:59;98664.73;;;14.01;41.35
73936;BME280;62287;50.858;0.252;2023-03-14T01:33:30;98671.34;;;14.46;41.23
73936;BME280;62287;50.858;0.252;2023-03-14T01:34:02;98662.29;;;14.46;41.13
73936;BME280;62287;50.858;0.252;2023-03-14T01:34:33;98664.43;;;14.74;41.24
73936;BME280;62287;50.858;0.252;2023-03-14T01:35:04;98666.23;;;14.19;41.47
73936;BME280;62287;50.858;0.252;2023-03-14T01:35:35;98664.57;;;14.30;41.40
73936;BME280;62287;50.858;0.252;2023-03-14T01:36:08;98663.46;;;14.41;41.25
73936;BME280;62287;50.858;0.252;2023-03-14T01:36:39;98665.69;;;13.88;41.43
73936;BME280;62287;50.858;0.252;2023-03-14T01:37:10;98660.55;;;13.87;41.38
73936;BME280;62287;50.858;0.252;2023-03-14T01:37:41;98660.39;;;14.47;41.30
73936;BME280;62287;50.858;0.252;2023-03-14T01:38:11;98664.45;;;14.27;41.40
73936;BME280;62287;50.858;0.252;2023-03-14T01:38:43;98661.01;;;14.64;41.13
73936;BME280;62287;50.858;0.252;2023-03-14T01:39:14;98659.80;;;14.53;41.10
73936;BME280;62287;50.858;0.252;2023-03-14T01:39:46;98664.25;;;14.52;41.10
73936;BME280;62287;50.858;0.252;2023-03-14T01:40:18;98662.50;;;14.97;41.10
73936;BME280;62287;50.858;0.252;2023-03-14T01:40:49;98659.35;;;14.46;41.20
73936;BME280;62287;50.858;0.252;2023-03-14T01:41:22;98663.74;;;14.47;41.12
73936;BME280;62287;50.858;0.252;2023-03-14T01:41:54;98668.34;;;14.81;41.27
73936;BME280;62287;50.858;0.252;2023-03-14T01:42:25;98660.98;;;14.38;41.24
73936;BME280;62287;50.858;0.252;2023-03-14T01:42:56;98659.94;;;14.41;41.21
73936;BME280;62287;50.858;0.252;2023-03-14T01:43:28;98661.55;;;14.48;41.23
73936;BME280;62287;50.858;0.252;2023-03-14T01:43:59;98663.64;;;14.68;41.38
73936;BME280;62287;50.858;0.252;2023-03-14T01:44:47;98665.69;;;14.53;41.40
73936;BME280;62287;50.858;0.252;2023-03-14T01:46:38;98660.18;;;14.09;41.31
73936;BME280;62287;50.858;0.252;2023-03-14T01:47:09;98662.36;;;14.48;41.42
73936;BME280;62287;50.858;0.252;2023-03-14T01:47:40;98663.15;;;14.29;41.38
73936;BME280;62287;50.858;0.252;2023-03-14T01:48:11;98661.12;;;14.49;41.26
73936;BME280;62287;50.858;0.252;2023-03-14T01:48:45;98664.90;;;14.02;41.26
73936;BME280;62287;50.858;0.252;2023-03-14T01:49:22;98662.97;;;14.40;41.21
73936;BME280;62287;50.858;0.252;2023-03-14T01:50:00;98662.38;;;14.37;41.30
73936;BME280;62287;50.858;0.252;2023-03-14T01:50:32;98662.78;;;14.18;41.43
73936;BME280;62287;50.858;0.252;2023-03-14T01:51:08;98659.12;;;14.28;41.30
73936;BME280;62287;50.858;0.252;2023-03-14T01:51:46;98664.14;;;14.35;41.23
73936;BME280;62287;50.858;0.252;2023-03-14T01:52:20;98663.77;;;14.32;41.35
73936;BME280;62287;50.858;0.252;2023-03-14T01:52:52;98664.06;;;14.20;41.35
73936;BME280;62287;50.858;0.252;2023-03-14T01:53:24;98661.17;;;14.20;41.37
73936;BME280;62287;50.858;0.252;2023-03-14T01:54:00;98661.97;;;14.15;41.42
73936;BME280;62287;50.858;0.252;2023-03-14T01:54:35;98659.81;;;14.45;41.47
73936;BME280;62287;50.858;0.252;2023-03-14T01:55:12;98660.71;;;14.50;41.40
73936;BME280;62287;50.858;0.252;2023-03-14T01:55:44;98660.88;;;14.15;41.38
73936;BME280;62287;50.858;0.252;2023-03-14T01:56:17;98659.34;;;14.53;41.33
73936;BME280;62287;50.858;0.252;2023-03-14T01:56:52;98656.19;;;13.89;41.28
73936;BME280;62287;50.858;0.252;2023-03-14T01:57:27;98653.82;;;13.70;41.42
73936;BME280;62287;50.858;0.252;2023-03-14T01:58:03;98656.74;;;14.65;41.21
73936;BME280;62287;50.858;0.252;2023-03-14T01:58:34;98658.76;;;14.27;41.22
73936;BME280;62287;50.858;0.252;2023-03-14T01:59:08;98663.85;;;14.54;41.33
73936;BME280;62287;50.858;0.252;2023-03-14T01:59:46;98665.06;;;14.19;41.31
73936;BME280;62287;50.858;0.252;2023-03-14T02:00:21;98667.62;;;14.26;41.21
73936;BME280;62287;50.858;0.252;2023-03-14T02:00:52;98670.14;;;14.05;41.41
73936;BME280;62287;50.858;0.252;2023-03-14T02:01:24;98670.30;;;14.40;41.47
73936;BME280;62287;50.858;0.252;2023-03-14T02:01:57;98675.47;;;13.99;41.55
73936;BME280;62287;50.858;0.252;2023-03-14T02:02:30;98676.10;;;14.14;41.38
73936;BME280;62287;50.858;0.252;2023-03-14T02:03:05;98676.63;;;14.08;41.45
73936;BME280;62287;50.858;0.252;2023-03-14T02:03:44;98676.16;;;14.31;41.37
73936;BME280;62287;50.858;0.252;2023-03-14T02:04:18;98676.90;;;14.14;41.48
73936;BME280;62287;50.858;0.252;2023-03-14T02:04:51;98677.48;;;14.07;41.52
73936;BME280;62287;50.858;0.252;2023-03-14T02:05:24;98675.06;;;13.84;41.42
73936;BME280;62287;50.858;0.252;2023-03-14T02:06:00;98673.58;;;13.59;41.41
73936;BME280;62287;50.858;0.252;2023-03-14T02:06:42;98678.67;;;14.15;41.34
73936;BME280;62287;50.858;0.252;2023-03-14T02:07:18;98672.86;;;14.17;41.20
73936;BME280;62287;50.858;0.252;2023-03-14T02:07:52;98675.59;;;14.33;41.15
73936;BME280;62287;50.858;0.252;2023-03-14T02:08:24;98674.63;;;14.27;41.16
73936;BME280;62287;50.858;0.252;2023-03-14T02:08:55;98679.05;;;14.63;41.19
73936;BME280;62287;50.858;0.252;2023-03-14T02:09:27;98675.42;;;14.63;41.17
73936;BME280;62287;50.858;0.252;2023-03-14T02:09:59;98678.21;;;14.20;41.25
73936;BME280;62287;50.858;0.252;2023-03-14T02:10:34;98674.71;;;14.37;41.25
73936;BME280;62287;50.858;0.252;2023-03-14T02:11:06;98678.71;;;14.18;41.41
73936;BME280;62287;50.858;0.252;2023-03-14T02:11:38;98676.15;;;14.54;41.35
73936;BME280;62287;50.858;0.252;2023-03-14T02:12:12;98675.89;;;14.15;41.34
73936;BME280;62287;50.858;0.252;2023-03-14T02:12:45;98677.58;;;14.13;41.38
73936;BME280;62287;50.858;0.252;2023-03-14T02:13:17;98671.90;;;14.32;41.27
73936;BME280;62287;50.858;0.252;2023-03-14T02:13:49;98671.26;;;14.72;41.13
73936;BME280;62287;50.858;0.252;2023-03-14T02:14:30;98672.85;;;14.35;41.05
73936;BME280;62287;50.858;0.252;2023-03-14T02:15:02;98675.23;;;14.53;41.07
73936;BME280;62287;50.858;0.252;2023-03-14T02:15:34;98674.11;;;14.40;41.07
73936;BME280;62287;50.858;0.252;2023-03-14T02:16:06;98678.71;;;14.57;41.25
73936;BME280;62287;50.858;0.252;2023-03-14T02:16:37;98681.37;;;14.58;41.27
73936;BME280;62287;50.858;0.252;2023-03-14T02:17:08;98680.26;;;14.19;41.33
73936;BME280;62287;50.858;0.252;2023-03-14T02:17:41;98679.94;;;14.14;41.38
73936;BME280;62287;50.858;0.252;2023-03-14T02:18:14;98681.04;;;14.16;41.35
73936;BME280;62287;50.858;0.252;2023-03-14T02:18:45;98682.13;;;14.67;41.28
73936;BME280;62287;50.858;0.252;2023-03-14T02:19:20;98678.84;;;14.10;41.40
73936;BME280;62287;50.858;0.252;2023-03-14T02:20:08;98681.05;;;14.29;41.22
73936;BME280;62287;50.858;0.252;2023-03-14T02:20:47;98686.35;;;13.79;41.33
73936;BME280;62287;50.858;0.252;2023-03-14T02:21:25;98683.97;;;14.46;41.45
73936;BME280;62287;50.858;0.252;2023-03-14T02:22:05;98688.52;;;14.30;41.37
73936;BME280;62287;50.858;0.252;2023-03-14T02:22:40;98688.00;;;14.41;41.55
73936;BME280;62287;50.858;0.252;2023-03-14T02:23:16;98688.05;;;14.10;41.51
73936;BME280;62287;50.858;0.252;2023-03-14T02:23:56;98696.45;;;14.12;41.47
73936;BME280;62287;50.858;0.252;2023-03-14T02:24:34;98695.88;;;14.23;41.47
73936;BME280;62287;50.858;0.252;2023-03-14T02:25:12;98697.89;;;14.43;41.52
73936;BME280;62287;50.858;0.252;2023-03-14T02:25:48;98700.09;;;14.11;41.47
73936;BME280;62287;50.858;0.252;2023-03-14T02:26:25;98703.11;;;14.35;41.60
73936;BME280;62287;50.858;0.252;2023-03-14T02:27:05;98712.57;;;13.92;41.65
73936;BME280;62287;50.858;0.252;2023-03-14T02:27:36;98713.76;;;14.28;41.63
73936;BME280;62287;50.858;0.252;2023-03-14T02:28:08;98723.45;;;14.08;41.51
73936;BME280;62287;50.858;0.252;2023-03-14T02:28:40;98724.65;;;14.16;41.44
73936;BME280;62287;50.858;0.252;2023-03-14T02:29:11;98738.79;;;14.10;41.45
73936;BME280;62287;50.858;0.252;2023-03-14T02:29:48;98756.02;;;14.32;41.56
73936;BME280;62287;50.858;0.252;2023-03-14T02:30:22;98760.29;;;14.27;41.58
73936;BME280;62287;50.858;0.252;2023-03-14T02:30:53;98762.12;;;13.92;41.54
73936;BME280;62287;50.858;0.252;2023-03-14T02:31:24;98766.78;;;13.82;41.62
73936;BME280;62287;50.858;0.252;2023-03-14T02:31:55;98769.64;;;13.91;41.56
73936;BME280;62287;50.858;0.252;2023-03-14T02:32:27;98772.43;;;13.75;41.61
73936;BME280;62287;50.858;0.252;2023-03-14T02:33:03;98778.22;;;13.45;41.61
73936;BME280;62287;50.858;0.252;2023-03-14T02:33:35;98783.21;;;13.72;41.54
73936;BME280;62287;50.858;0.252;2023-03-14T02:34:08;98782.63;;;13.73;41.52
73936;BME280;62287;50.858;0.252;2023-03-14T02:34:40;98791.57;;;14.06;41.54
73936;BME280;62287;50.858;0.252;2023-03-14T02:35:17;98788.84;;;13.86;41.41
73936;BME280;62287;50.858;0.252;2023-03-14T02:35:52;98788.47;;;14.03;41.51
73936;BME280;62287;50.858;0.252;2023-03-14T02:36:24;98795.09;;;13.82;41.33
73936;BME280;62287;50.858;0.252;2023-03-14T02:36:55;98800.58;;;13.36;41.40
73936;BME280;62287;50.858;0.252;2023-03-14T02:37:32;98802.07;;;13.63;41.48
73936;BME280;62287;50.858;0.252;2023-03-14T02:38:10;98807.55;;;13.69;41.45
73936;BME280;62287;50.858;0.252;2023-03-14T02:38:47;98809.72;;;13.64;41.35
73936;BME280;62287;50.858;0.252;2023-03-14T02:39:24;98808.74;;;14.04;41.40
73936;BME280;62287;50.858;0.252;2023-03-14T02:39:58;98816.53;;;14.08;41.37
73936;BME280;62287;50.858;0.252;2023-03-14T02:40:29;98821.10;;;13.24;41.37
73936;BME280;62287;50.858;0.252;2023-03-14T02:41:00;98818.51;;;13.74;41.32
73936;BME280;62287;50.858;0.252;2023-03-14T02:41:32;98822.24;;;13.85;41.18
73936;BME280;62287;50.858;0.252;2023-03-14T02:42:03;98823.28;;;14.13;41.20
73936;BME280;62287;50.858;0.252;2023-03-14T02:42:35;98829.04;;;13.75;41.23
73936;BME280;62287;50.858;0.252;2023-03-14T02:43:06;98829.35;;;13.70;41.28
73936;BME280;62287;50.858;0.252;2023-03-14T02:43:37;98832.27;;;13.57;41.34
73936;BME280;62287;50.858;0.252;2023-03-14T02:44:08;98836.23;;;13.97;41.28
73936;BME280;62287;50.858;0.252;2023-03-14T02:44:48;98841.62;;;13.61;41.34
73936;BME280;62287;50.858;0.252;2023-03-14T02:45:54;98845.05;;;13.97;41.34
73936;BME280;62287;50.858;0.252;2023-03-14T02:46:25;98852.65;;;13.68;41.24
73936;BME280;62287;50.858;0.252;2023-03-14T02:46:57;98852.65;;;13.62;41.23
73936;BME280;62287;50.858;0.252;2023-03-14T02:47:29;98851.98;;;13.63;41.17
73936;BME280;62287;50.858;0.252;2023-03-14T02:48:04;98861.50;;;13.96;41.26
73936;BME280;62287;50.858;0.252;2023-03-14T02:48:39;98865.54;;;13.97;41.27
73936;BME280;62287;50.858;0.252;2023-03-14T02:49:12;98865.38;;;13.96;41.16
73936;BME280;62287;50.858;0.252;2023-03-14T02:49:46;98868.78;;;13.65;41.18
73936;BME280;62287;50.858;0.252;2023-03-14T02:50:19;98870.45;;;13.65;41.10
73936;BME280;62287;50.858;0.252;2023-03-14T02:50:54;98868.69;;;13.99;41.16
73936;BME280;62287;50.858;0.252;2023-03-14T02:51:27;98874.22;;;13.88;41.14
73936;BME280;62287;50.858;0.252;2023-03-14T02:51:59;98875.01;;;13.92;41.10
73936;BME280;62287;50.858;0.252;2023-03-14T02:52:29;98874.31;;;13.55;41.21
73936;BME280;62287;50.858;0.252;2023-03-14T02:53:01;98875.80;;;13.45;41.23
73936;BME280;62287;50.858;0.252;2023-03-14T02:53:34;98874.46;;;13.81;41.14